Time;durP1;ratioP1;P1;durP2;ratioP2;P2;SDS_P1;SDS_P2;PMS_P1;PMS_P2;Temp;Humidity;BMP_temperature;BMP_pressure;BME280_temperature;BME280_humidity;BME280_pressure;Samples;Min_cycle;Max_cycle;Signal;HPM_P1;HPM_P2
2022/09/10 00:00:35;;;;;;;;;;;22.00;83.80;;;;;;5096953;28;19908;-56
2022/09/10 00:03:01;;;;;;;;;;;22.00;83.90;;;;;;5096379;28;20248;-56
2022/09/10 00:05:27;;;;;;;;;;;22.00;83.90;;;;;;5096646;28;19927;-56
2022/09/10 00:07:52;;;;;;;;;;;22.00;83.80;;;;;;5096237;28;19908;-53
2022/09/10 00:10:18;;;;;;;;;;;22.00;83.90;;;;;;5096767;28;19908;-55
2022/09/10 00:12:47;;;;;;;;;;;22.00;83.90;;;;;;5096400;28;19953;-57
2022/09/10 00:15:16;;;;;;;;;;;21.90;83.90;;;;;;5096034;28;19973;-57
2022/09/10 00:17:42;;;;;;;;;;;21.90;83.80;;;;;;5096387;28;19912;-55
2022/09/10 00:20:09;;;;;;;;;;;21.90;83.80;;;;;;5095952;28;19908;-56
2022/09/10 00:22:34;;;;;;;;;;;22.00;83.90;;;;;;5078172;28;19916;-56
2022/09/10 00:25:00;;;;;;;;;;;21.90;83.90;;;;;;5095877;28;20374;-54
2022/09/10 00:27:25;;;;;;;;;;;21.90;83.80;;;;;;5096111;28;19942;-55
2022/09/10 00:29:52;;;;;;;;;;;22.00;83.90;;;;;;5096158;28;20203;-55
2022/09/10 00:32:17;;;;;;;;;;;22.00;83.90;;;;;;5077926;28;20010;-53
2022/09/10 00:34:43;;;;;;;;;;;21.90;83.80;;;;;;5096016;28;19991;-56
2022/09/10 00:37:08;;;;;;;;;;;21.90;83.90;;;;;;5095649;28;19995;-57
2022/09/10 00:39:34;;;;;;;;;;;21.90;83.90;;;;;;5095946;28;19930;-52
2022/09/10 00:41:59;;;;;;;;;;;21.90;83.90;;;;;;5095800;28;19908;-56
2022/09/10 00:44:40;;;;;;;;;;;21.90;83.90;;;;;;5095437;28;19916;-56
2022/09/10 00:47:26;;;;;;;;;;;21.90;83.90;;;;;;5095701;28;19917;-55
2022/09/10 00:49:54;;;;;;;;;;;21.90;83.80;;;;;;5094762;28;19915;-57
2022/09/10 00:52:19;;;;;;;;;;;21.90;83.90;;;;;;5095969;28;19943;-53
2022/09/10 00:54:45;;;;;;;;;;;21.90;83.80;;;;;;5095539;28;19963;-54
2022/09/10 00:57:13;;;;;;;;;;;21.90;83.90;;;;;;5095380;28;20247;-55
2022/09/10 00:59:40;;;;;;;;;;;21.90;83.80;;;;;;5095405;28;19995;-56
2022/09/10 01:02:06;;;;;;;;;;;21.90;83.90;;;;;;5077241;28;19909;-56
2022/09/10 01:04:32;;;;;;;;;;;21.90;83.80;;;;;;5095413;28;19920;-55
2022/09/10 01:06:58;;;;;;;;;;;21.90;83.90;;;;;;5095580;28;19931;-56
2022/09/10 01:09:24;;;;;;;;;;;21.90;83.90;;;;;;5095039;28;19908;-51
2022/09/10 01:11:55;;;;;;;;;;;21.90;83.90;;;;;;5095178;28;20355;-55
2022/09/10 01:14:24;;;;;;;;;;;21.90;83.90;;;;;;5095499;28;19954;-53
2022/09/10 01:16:52;;;;;;;;;;;21.90;83.90;;;;;;5095221;28;19908;-54
2022/09/10 01:19:35;;;;;;;;;;;21.90;83.90;;;;;;5095142;28;19909;-54
2022/09/10 01:22:10;;;;;;;;;;;21.90;83.90;;;;;;5094891;28;20381;-52
2022/09/10 01:24:53;;;;;;;;;;;21.90;83.90;;;;;;5095067;28;20252;-54
2022/09/10 01:27:25;;;;;;;;;;;21.90;83.80;;;;;;5094491;28;19931;-56
2022/09/10 01:29:54;;;;;;;;;;;21.90;83.90;;;;;;5076823;28;20374;-55
2022/09/10 01:32:26;;;;;;;;;;;21.90;83.90;;;;;;5094926;28;19915;-54
2022/09/10 01:35:17;;;;;;;;;;;21.90;83.80;;;;;;5094697;28;19908;-54
2022/09/10 01:37:46;;;;;;;;;;;21.90;83.90;;;;;;5077286;28;19914;-56
2022/09/10 01:40:12;;;;;;;;;;;21.90;83.80;;;;;;5094829;28;19908;-55
2022/09/10 01:42:38;;;;;;;;;;;21.90;83.80;;;;;;5094667;28;19908;-53
2022/09/10 01:45:04;;;;;;;;;;;21.90;83.80;;;;;;5094582;28;19916;-55
2022/09/10 01:48:05;;;;;;;;;;;21.90;83.80;;;;;;5094914;28;19909;-55
2022/09/10 01:50:49;;;;;;;;;;;21.90;83.80;;;;;;5032489;28;19934;-55
2022/09/10 01:53:35;;;;;;;;;;;21.90;83.80;;;;;;5089386;28;20355;-54
2022/09/10 01:56:08;;;;;;;;;;;21.90;83.80;;;;;;5093745;28;20359;-54
2022/09/10 01:58:39;;;;;;;;;;;21.90;83.80;;;;;;5094583;28;20396;-53
2022/09/10 02:01:23;;;;;;;;;;;21.90;83.80;;;;;;5094216;28;19908;-55
2022/09/10 02:03:50;;;;;;;;;;;21.90;83.80;;;;;;5094264;28;19920;-55
2022/09/10 02:06:19;;;;;;;;;;;21.90;83.80;;;;;;5076216;28;20610;-57
2022/09/10 02:08:48;;;;;;;;;;;21.90;83.80;;;;;;5076209;28;19908;-56
2022/09/10 02:11:14;;;;;;;;;;;21.90;83.80;;;;;;5076367;28;19912;-56
2022/09/10 02:13:41;;;;;;;;;;;21.90;83.80;;;;;;5094077;28;19908;-57
2022/09/10 02:16:28;;;;;;;;;;;21.90;83.80;;;;;;5094040;28;19920;-56
2022/09/10 02:18:54;;;;;;;;;;;21.90;83.80;;;;;;5093859;28;19908;-53
2022/09/10 02:21:20;;;;;;;;;;;21.90;83.80;;;;;;5076168;28;19959;-52
2022/09/10 02:23:48;;;;;;;;;;;21.80;83.80;;;;;;5093934;28;20374;-57
2022/09/10 02:26:14;;;;;;;;;;;21.80;83.80;;;;;;5094195;28;19916;-56
2022/09/10 02:28:42;;;;;;;;;;;21.80;83.80;;;;;;5093792;28;19914;-54
2022/09/10 02:31:08;;;;;;;;;;;21.80;83.90;;;;;;5093848;28;19909;-54
2022/09/10 02:33:34;;;;;;;;;;;21.90;83.90;;;;;;5094191;28;19961;-54
2022/09/10 02:36:00;;;;;;;;;;;21.80;83.80;;;;;;5076113;28;19915;-55
2022/09/10 02:38:28;;;;;;;;;;;21.80;83.90;;;;;;5097400;28;19908;-55
2022/09/10 02:40:54;;;;;;;;;;;21.80;83.90;;;;;;5098225;28;19908;-56
2022/09/10 02:43:20;;;;;;;;;;;21.80;83.90;;;;;;5098147;28;20003;-53
2022/09/10 02:45:45;;;;;;;;;;;21.80;83.90;;;;;;5098390;28;20023;-56
2022/09/10 02:48:11;;;;;;;;;;;21.80;83.90;;;;;;5098117;28;20355;-54
2022/09/10 02:50:36;;;;;;;;;;;21.80;83.90;;;;;;5079982;28;19916;-54
2022/09/10 02:53:02;;;;;;;;;;;21.80;83.90;;;;;;5098093;28;20292;-56
2022/09/10 02:55:27;;;;;;;;;;;21.80;83.90;;;;;;5097608;28;19908;-56
2022/09/10 02:57:54;;;;;;;;;;;21.80;83.90;;;;;;5097870;28;19908;-55
2022/09/10 03:00:20;;;;;;;;;;;21.80;83.90;;;;;;5097908;28;20343;-56
2022/09/10 03:02:46;;;;;;;;;;;21.80;83.90;;;;;;5097918;28;19957;-56
2022/09/10 03:05:12;;;;;;;;;;;21.80;83.90;;;;;;5079618;28;19963;-56
2022/09/10 03:07:38;;;;;;;;;;;21.80;83.90;;;;;;5097568;28;19908;-54
2022/09/10 03:10:04;;;;;;;;;;;21.80;83.90;;;;;;5097667;28;19908;-55
2022/09/10 03:12:29;;;;;;;;;;;21.80;83.90;;;;;;5097564;28;19908;-53
2022/09/10 03:14:56;;;;;;;;;;;21.80;83.90;;;;;;5097249;28;19908;-53
2022/09/10 03:17:22;;;;;;;;;;;21.80;83.90;;;;;;5097910;28;19934;-57
2022/09/10 03:19:47;;;;;;;;;;;21.80;83.90;;;;;;5097808;28;19912;-56
2022/09/10 03:22:13;;;;;;;;;;;21.80;83.90;;;;;;5097527;28;19998;-57
2022/09/10 03:24:38;;;;;;;;;;;21.80;84.00;;;;;;5079012;28;19916;-54
2022/09/10 03:27:05;;;;;;;;;;;21.80;84.00;;;;;;5096967;28;19908;-56
2022/09/10 03:29:30;;;;;;;;;;;21.80;83.90;;;;;;5097197;28;19908;-56
2022/09/10 03:31:56;;;;;;;;;;;21.80;83.90;;;;;;5096863;28;19965;-54
2022/09/10 03:34:21;;;;;;;;;;;21.70;83.90;;;;;;5097059;28;19908;-53
2022/09/10 03:36:47;;;;;;;;;;;21.80;83.90;;;;;;5096745;28;19908;-55
2022/09/10 03:39:13;;;;;;;;;;;21.70;83.90;;;;;;5096856;28;19908;-55
2022/09/10 03:41:38;;;;;;;;;;;21.80;83.90;;;;;;5096826;28;19908;-55
2022/09/10 03:44:04;;;;;;;;;;;21.80;83.90;;;;;;5096719;28;19953;-57
2022/09/10 03:46:30;;;;;;;;;;;21.70;83.80;;;;;;5096966;28;19908;-55
2022/09/10 03:48:55;;;;;;;;;;;21.80;83.80;;;;;;5096073;28;19908;-54
2022/09/10 03:51:22;;;;;;;;;;;21.80;83.90;;;;;;5096881;28;20289;-55
2022/09/10 03:53:47;;;;;;;;;;;21.80;83.80;;;;;;5096800;28;19931;-57
2022/09/10 03:56:14;;;;;;;;;;;21.80;83.80;;;;;;5096500;28;20354;-53
2022/09/10 03:58:39;;;;;;;;;;;21.80;83.80;;;;;;5096767;28;19912;-56
2022/09/10 04:01:05;;;;;;;;;;;21.80;83.80;;;;;;5096404;28;19915;-57
2022/09/10 04:03:31;;;;;;;;;;;21.80;83.80;;;;;;5096608;28;19920;-53
2022/09/10 04:05:57;;;;;;;;;;;21.80;83.70;;;;;;5096263;28;19927;-55
2022/09/10 04:08:23;;;;;;;;;;;21.80;83.70;;;;;;5096614;28;19954;-57
2022/09/10 04:10:48;;;;;;;;;;;21.70;83.70;;;;;;5078399;28;19916;-56
2022/09/10 04:13:14;;;;;;;;;;;21.80;83.70;;;;;;5077989;28;19908;-55
2022/09/10 04:15:41;;;;;;;;;;;21.80;83.70;;;;;;5095947;28;19908;-55
2022/09/10 04:18:07;;;;;;;;;;;21.80;83.70;;;;;;5096103;28;19919;-54
2022/09/10 04:20:33;;;;;;;;;;;21.80;83.80;;;;;;5096167;28;20343;-55
2022/09/10 04:22:59;;;;;;;;;;;21.80;83.80;;;;;;5096511;28;19912;-57
2022/09/10 04:25:24;;;;;;;;;;;21.80;83.80;;;;;;5095811;28;20065;-56
2022/09/10 04:27:50;;;;;;;;;;;21.80;83.80;;;;;;5095942;28;20319;-56
2022/09/10 04:30:16;;;;;;;;;;;21.70;83.70;;;;;;5095821;28;19915;-54
2022/09/10 04:32:43;;;;;;;;;;;21.70;83.70;;;;;;5095719;28;19954;-56
2022/09/10 04:35:08;;;;;;;;;;;21.70;83.70;;;;;;5096061;28;19912;-54
2022/09/10 04:37:34;;;;;;;;;;;21.70;83.70;;;;;;5095981;28;19916;-54
2022/09/10 04:39:59;;;;;;;;;;;21.70;83.70;;;;;;5095604;28;19915;-57
2022/09/10 04:42:25;;;;;;;;;;;21.70;83.70;;;;;;5095780;28;19914;-52
2022/09/10 04:44:50;;;;;;;;;;;21.70;83.70;;;;;;5095728;28;19916;-56
2022/09/10 04:47:16;;;;;;;;;;;21.70;83.70;;;;;;5077561;28;19912;-53
2022/09/10 04:49:42;;;;;;;;;;;21.70;83.70;;;;;;5096112;28;19912;-56
2022/09/10 04:52:09;;;;;;;;;;;21.70;83.70;;;;;;5095315;28;20393;-53
2022/09/10 04:54:36;;;;;;;;;;;21.70;83.70;;;;;;5095617;28;19963;-54
2022/09/10 04:57:01;;;;;;;;;;;21.70;83.70;;;;;;5095897;28;19916;-54
2022/09/10 04:59:28;;;;;;;;;;;21.70;83.70;;;;;;5095274;28;20282;-56
2022/09/10 05:01:53;;;;;;;;;;;21.70;83.70;;;;;;5095864;28;19908;-53
2022/09/10 05:04:19;;;;;;;;;;;21.70;83.70;;;;;;5095328;28;20263;-56
2022/09/10 05:06:46;;;;;;;;;;;21.70;83.70;;;;;;5095010;28;20061;-52
2022/09/10 05:09:11;;;;;;;;;;;21.70;83.70;;;;;;5095117;28;20359;-56
2022/09/10 05:11:37;;;;;;;;;;;21.70;83.70;;;;;;5076725;28;19914;-54
2022/09/10 05:14:02;;;;;;;;;;;21.70;83.70;;;;;;5095555;28;19924;-55
2022/09/10 05:16:28;;;;;;;;;;;21.70;83.70;;;;;;5095246;28;19909;-55
2022/09/10 05:18:53;;;;;;;;;;;21.70;83.70;;;;;;5077020;28;20252;-55
2022/09/10 05:21:19;;;;;;;;;;;21.70;83.70;;;;;;5094827;28;20270;-55
2022/09/10 05:23:44;;;;;;;;;;;21.70;83.70;;;;;;5094715;28;19908;-57
2022/09/10 05:26:10;;;;;;;;;;;21.70;83.70;;;;;;5094650;28;19912;-54
2022/09/10 05:28:36;;;;;;;;;;;21.70;84.20;;;;;;5094914;28;19951;-53
2022/09/10 05:31:02;;;;;;;;;;;21.70;83.70;;;;;;5095029;28;19916;-55
2022/09/10 05:33:27;;;;;;;;;;;21.70;83.60;;;;;;5094643;28;19995;-55
2022/09/10 05:35:52;;;;;;;;;;;21.70;83.60;;;;;;5076768;28;20443;-56
2022/09/10 05:38:18;;;;;;;;;;;21.70;83.70;;;;;;5094941;28;19963;-53
2022/09/10 05:40:44;;;;;;;;;;;21.70;83.70;;;;;;5094427;28;20350;-55
2022/09/10 05:43:10;;;;;;;;;;;21.70;83.70;;;;;;5094462;28;20056;-57
2022/09/10 05:45:36;;;;;;;;;;;21.70;83.70;;;;;;5094569;28;19912;-54
2022/09/10 05:48:02;;;;;;;;;;;21.70;83.60;;;;;;5094561;28;19919;-53
2022/09/10 05:50:29;;;;;;;;;;;21.70;83.60;;;;;;5094717;28;20251;-54
2022/09/10 05:52:55;;;;;;;;;;;21.70;83.60;;;;;;5094786;28;19961;-55
2022/09/10 05:55:21;;;;;;;;;;;21.70;83.60;;;;;;5094562;28;19908;-53
2022/09/10 05:57:46;;;;;;;;;;;21.70;83.60;;;;;;5094207;28;19918;-57
2022/09/10 06:00:12;;;;;;;;;;;21.70;83.60;;;;;;5094256;28;20359;-57
2022/09/10 06:02:37;;;;;;;;;;;21.70;83.60;;;;;;5094137;28;19934;-57
2022/09/10 06:05:03;;;;;;;;;;;21.70;83.60;;;;;;5094483;28;19973;-57
2022/09/10 06:07:29;;;;;;;;;;;21.70;83.60;;;;;;5094231;28;19908;-57
2022/09/10 06:09:56;;;;;;;;;;;21.70;83.60;;;;;;5093889;28;19908;-58
2022/09/10 06:12:21;;;;;;;;;;;21.70;83.60;;;;;;5093771;28;20426;-57
2022/09/10 06:14:47;;;;;;;;;;;21.70;83.60;;;;;;5076041;28;19963;-57
2022/09/10 06:17:12;;;;;;;;;;;21.70;83.60;;;;;;5093886;28;20359;-53
2022/09/10 06:19:38;;;;;;;;;;;21.70;83.60;;;;;;5094101;28;19995;-57
2022/09/10 06:22:04;;;;;;;;;;;21.70;83.60;;;;;;5094133;28;20338;-52
2022/09/10 06:24:30;;;;;;;;;;;21.70;83.60;;;;;;5093901;28;20005;-55
2022/09/10 06:26:56;;;;;;;;;;;21.70;83.60;;;;;;5094035;28;19951;-56
2022/09/10 06:29:22;;;;;;;;;;;21.70;83.60;;;;;;5094041;28;19908;-55
2022/09/10 06:31:47;;;;;;;;;;;21.70;83.60;;;;;;5094274;28;19908;-54
2022/09/10 06:34:13;;;;;;;;;;;21.70;83.70;;;;;;5093763;28;20053;-54
2022/09/10 06:36:38;;;;;;;;;;;21.70;83.60;;;;;;5094301;28;19923;-50
2022/09/10 06:39:04;;;;;;;;;;;21.70;83.60;;;;;;5075582;28;20024;-56
2022/09/10 06:41:29;;;;;;;;;;;21.70;83.60;;;;;;5093707;28;19908;-53
2022/09/10 06:43:55;;;;;;;;;;;21.70;83.60;;;;;;5093443;28;19908;-53
2022/09/10 06:46:21;;;;;;;;;;;21.60;83.70;;;;;;5075615;28;20415;-54
2022/09/10 06:48:46;;;;;;;;;;;21.60;83.70;;;;;;5093666;28;19961;-56
2022/09/10 06:51:12;;;;;;;;;;;21.70;83.60;;;;;;5093874;28;20382;-54
2022/09/10 06:53:39;;;;;;;;;;;21.70;83.70;;;;;;5075833;28;20294;-55
2022/09/10 06:56:07;;;;;;;;;;;21.60;83.70;;;;;;5075759;28;19916;-55
2022/09/10 06:58:34;;;;;;;;;;;21.60;83.70;;;;;;5093132;28;20311;-54
2022/09/10 07:01:06;;;;;;;;;;;21.60;83.60;;;;;;5075457;28;20409;-55
2022/09/10 07:03:32;;;;;;;;;;;21.60;83.70;;;;;;5093850;28;20387;-53
2022/09/10 07:06:01;;;;;;;;;;;21.60;83.70;;;;;;5093425;28;20008;-54
2022/09/10 07:08:27;;;;;;;;;;;21.60;83.60;;;;;;5093177;28;20389;-56
2022/09/10 07:10:58;;;;;;;;;;;21.60;83.70;;;;;;5093583;28;19908;-54
2022/09/10 07:13:24;;;;;;;;;;;21.60;83.70;;;;;;5093310;28;19908;-56
2022/09/10 07:15:50;;;;;;;;;;;21.60;83.70;;;;;;5093651;28;19930;-53
2022/09/10 07:18:15;;;;;;;;;;;21.60;83.60;;;;;;5093501;28;20347;-55
2022/09/10 07:20:44;;;;;;;;;;;21.60;83.70;;;;;;5093464;28;19935;-53
2022/09/10 07:23:10;;;;;;;;;;;21.60;83.70;;;;;;5075236;28;19908;-53
2022/09/10 07:25:36;;;;;;;;;;;21.60;83.60;;;;;;5096729;28;19927;-57
2022/09/10 07:28:02;;;;;;;;;;;21.60;83.70;;;;;;5096445;28;19908;-56
2022/09/10 07:30:28;;;;;;;;;;;21.60;83.70;;;;;;5096677;28;19912;-57
2022/09/10 07:32:53;;;;;;;;;;;21.60;83.70;;;;;;5078699;28;19908;-55
2022/09/10 07:35:20;;;;;;;;;;;21.70;83.70;;;;;;5078741;28;19908;-53
2022/09/10 07:37:45;;;;;;;;;;;21.60;83.70;;;;;;5096690;28;19931;-55
2022/09/10 07:40:11;;;;;;;;;;;21.70;83.70;;;;;;5096570;28;20358;-56
2022/09/10 07:42:37;;;;;;;;;;;21.60;83.70;;;;;;5096456;28;19980;-55
2022/09/10 07:45:04;;;;;;;;;;;21.70;83.70;;;;;;5096298;28;19966;-54
2022/09/10 07:47:30;;;;;;;;;;;21.70;83.70;;;;;;5096687;28;19908;-55
2022/09/10 07:49:55;;;;;;;;;;;21.60;83.70;;;;;;5096675;28;19908;-54
2022/09/10 07:52:21;;;;;;;;;;;21.60;83.70;;;;;;5096562;28;19908;-56
2022/09/10 07:54:46;;;;;;;;;;;21.60;83.70;;;;;;5078173;28;19912;-53
2022/09/10 07:57:12;;;;;;;;;;;21.60;84.20;;;;;;5096142;28;19909;-54
2022/09/10 07:59:37;;;;;;;;;;;21.70;83.60;;;;;;5096396;28;20015;-53
2022/09/10 08:02:05;;;;;;;;;;;21.70;83.70;;;;;;5096260;28;19908;-56
2022/09/10 08:04:30;;;;;;;;;;;21.60;83.60;;;;;;5096383;28;19926;-55
2022/09/10 08:06:57;;;;;;;;;;;21.60;83.70;;;;;;5096220;28;19951;-55
2022/09/10 08:09:24;;;;;;;;;;;21.60;83.70;;;;;;5096224;28;19908;-55
2022/09/10 08:11:50;;;;;;;;;;;21.60;83.70;;;;;;5095859;28;20003;-54
2022/09/10 08:14:15;;;;;;;;;;;21.70;83.70;;;;;;5096162;28;19951;-54
2022/09/10 08:16:41;;;;;;;;;;;21.60;83.70;;;;;;5077756;28;20431;-55
2022/09/10 08:19:08;;;;;;;;;;;21.60;83.70;;;;;;5095871;28;20278;-53
2022/09/10 08:21:33;;;;;;;;;;;21.70;83.70;;;;;;5077733;28;19908;-53
2022/09/10 08:23:59;;;;;;;;;;;21.70;83.70;;;;;;5095691;28;19908;-52
2022/09/10 08:26:24;;;;;;;;;;;21.70;83.80;;;;;;5095898;28;19916;-54
2022/09/10 08:28:50;;;;;;;;;;;21.60;83.70;;;;;;5095395;28;20374;-54
2022/09/10 08:31:16;;;;;;;;;;;21.70;83.80;;;;;;5095673;28;19955;-56
2022/09/10 08:33:46;;;;;;;;;;;21.60;83.80;;;;;;5096026;28;19912;-54
2022/09/10 08:36:13;;;;;;;;;;;21.60;83.70;;;;;;5095014;28;20041;-58
2022/09/10 08:38:39;;;;;;;;;;;21.60;83.70;;;;;;5077434;28;19908;-52
2022/09/10 08:41:24;;;;;;;;;;;21.60;83.70;;;;;;5077300;28;19931;-53
2022/09/10 08:43:55;;;;;;;;;;;21.60;83.70;;;;;;5095059;28;20269;-55
2022/09/10 08:46:22;;;;;;;;;;;21.60;83.80;;;;;;5077050;28;20339;-53
2022/09/10 08:49:03;;;;;;;;;;;21.60;83.80;;;;;;5095058;28;19909;-55
2022/09/10 08:51:32;;;;;;;;;;;21.60;83.70;;;;;;5077142;28;19908;-52
2022/09/10 08:54:09;;;;;;;;;;;21.70;83.70;;;;;;5095172;28;19986;-56
2022/09/10 08:56:34;;;;;;;;;;;21.70;83.70;;;;;;5095301;28;19908;-57
2022/09/10 08:59:01;;;;;;;;;;;21.70;83.70;;;;;;5095221;28;20276;-55
2022/09/10 09:01:39;;;;;;;;;;;21.70;83.60;;;;;;5094933;28;19998;-56
2022/09/10 09:04:08;;;;;;;;;;;21.80;83.70;;;;;;5094924;28;20389;-52
2022/09/10 09:06:40;;;;;;;;;;;21.80;83.60;;;;;;5094653;28;20346;-56
2022/09/10 09:09:05;;;;;;;;;;;21.70;83.50;;;;;;5094692;28;19969;-57
2022/09/10 09:11:47;;;;;;;;;;;21.80;83.60;;;;;;5094891;28;19908;-55
2022/09/10 09:14:15;;;;;;;;;;;21.80;83.60;;;;;;5095140;28;19999;-55
2022/09/10 09:16:59;;;;;;;;;;;21.80;83.60;;;;;;5076699;28;19954;-56
2022/09/10 09:19:44;;;;;;;;;;;21.80;83.60;;;;;;5094805;28;19908;-54
2022/09/10 09:22:19;;;;;;;;;;;21.80;83.60;;;;;;5094379;28;19991;-55
2022/09/10 09:24:48;;;;;;;;;;;21.70;83.60;;;;;;5076527;28;19916;-56
2022/09/10 09:27:15;;;;;;;;;;;21.70;83.60;;;;;;5094775;28;19993;-54
2022/09/10 09:29:44;;;;;;;;;;;21.70;83.60;;;;;;5094664;28;19908;-56
2022/09/10 09:32:12;;;;;;;;;;;21.80;83.60;;;;;;5094704;28;19954;-57
2022/09/10 09:34:40;;;;;;;;;;;21.80;83.70;;;;;;5094686;28;20363;-56
2022/09/10 09:37:14;;;;;;;;;;;21.70;83.60;;;;;;5094296;28;19908;-57
2022/09/10 09:39:42;;;;;;;;;;;21.80;83.60;;;;;;5094808;28;20392;-54
2022/09/10 09:42:08;;;;;;;;;;;21.70;83.50;;;;;;5094346;28;19967;-56
2022/09/10 09:44:37;;;;;;;;;;;21.80;83.60;;;;;;5094099;28;20456;-55
2022/09/10 09:47:03;;;;;;;;;;;21.80;83.60;;;;;;5093990;28;19915;-55
2022/09/10 09:49:28;;;;;;;;;;;21.70;83.50;;;;;;5094029;28;19909;-54
2022/09/10 09:51:54;;;;;;;;;;;21.80;83.60;;;;;;5094065;28;19991;-52
2022/09/10 09:54:22;;;;;;;;;;;21.80;83.60;;;;;;5094245;28;19951;-56
2022/09/10 09:56:49;;;;;;;;;;;21.80;83.60;;;;;;5093583;28;20354;-53
2022/09/10 09:59:28;;;;;;;;;;;21.70;83.60;;;;;;5093976;28;19973;-56
2022/09/10 10:01:57;;;;;;;;;;;21.70;83.60;;;;;;5094194;28;19956;-55
2022/09/10 10:04:25;;;;;;;;;;;21.70;83.60;;;;;;5075550;28;19935;-55
2022/09/10 10:06:54;;;;;;;;;;;21.70;83.60;;;;;;5093440;28;20276;-55
2022/09/10 10:09:21;;;;;;;;;;;21.70;83.60;;;;;;5094402;28;20243;-56
2022/09/10 10:11:49;;;;;;;;;;;21.70;83.70;;;;;;5093936;28;19970;-56
2022/09/10 10:14:23;;;;;;;;;;;21.70;83.70;;;;;;5094120;28;19934;-57
2022/09/10 10:16:51;;;;;;;;;;;21.70;83.70;;;;;;5076049;28;19908;-54
2022/09/10 10:19:32;;;;;;;;;;;21.70;83.70;;;;;;5093837;28;19908;-56
2022/09/10 10:22:13;;;;;;;;;;;21.70;83.70;;;;;;5075601;28;19965;-54
2022/09/10 10:24:41;;;;;;;;;;;21.70;83.70;;;;;;5093893;28;19919;-53
2022/09/10 10:27:18;;;;;;;;;;;21.70;84.20;;;;;;5093854;28;20417;-54
2022/09/10 10:29:51;;;;;;;;;;;21.70;83.70;;;;;;5093830;28;20366;-53
2022/09/10 10:32:18;;;;;;;;;;;21.70;83.70;;;;;;5093509;28;19965;-55
2022/09/10 10:34:44;;;;;;;;;;;21.70;83.80;;;;;;5094087;28;19990;-56
2022/09/10 10:37:21;;;;;;;;;;;21.70;83.70;;;;;;5093845;28;19908;-52
2022/09/10 10:39:59;;;;;;;;;;;21.70;83.70;;;;;;5093901;28;19951;-56
2022/09/10 10:42:30;;;;;;;;;;;21.70;83.70;;;;;;5093768;28;19908;-55
2022/09/10 10:45:15;;;;;;;;;;;21.70;83.70;;;;;;5075291;28;20464;-56
2022/09/10 10:47:45;;;;;;;;;;;21.70;83.70;;;;;;5093926;28;19961;-54
2022/09/10 10:50:37;;;;;;;;;;;21.70;83.60;;;;;;5093089;28;19915;-56
2022/09/10 10:53:10;;;;;;;;;;;21.70;83.70;;;;;;5052498;28;20267;-56
2022/09/10 10:55:40;;;;;;;;;;;21.70;83.60;;;;;;5093591;28;19916;-54
2022/09/10 10:58:08;;;;;;;;;;;21.70;83.70;;;;;;5094763;28;19956;-56
2022/09/10 11:00:42;;;;;;;;;;;21.70;83.70;;;;;;5097434;28;19909;-52
2022/09/10 11:03:20;;;;;;;;;;;21.70;83.70;;;;;;5097262;28;19920;-55
2022/09/10 11:05:52;;;;;;;;;;;21.70;83.60;;;;;;5097435;28;19919;-56
2022/09/10 11:08:41;;;;;;;;;;;21.70;83.70;;;;;;5079272;28;20418;-54
2022/09/10 11:11:15;;;;;;;;;;;21.70;83.70;;;;;;5097541;28;19908;-57
2022/09/10 11:13:48;;;;;;;;;;;21.70;83.70;;;;;;5096945;28;19908;-56
2022/09/10 11:16:15;;;;;;;;;;;21.80;83.80;;;;;;5097246;28;20003;-56
2022/09/10 11:18:46;;;;;;;;;;;21.70;83.70;;;;;;5097032;28;19908;-56
2022/09/10 11:21:41;;;;;;;;;;;21.70;83.70;;;;;;5097140;28;20346;-55
2022/09/10 11:24:25;;;;;;;;;;;21.70;83.70;;;;;;5065005;28;19965;-56
2022/09/10 11:26:51;;;;;;;;;;;21.70;83.70;;;;;;5096971;28;19916;-56
2022/09/10 11:29:21;;;;;;;;;;;21.80;83.80;;;;;;5096895;28;19930;-56
2022/09/10 11:32:09;;;;;;;;;;;21.80;83.80;;;;;;5096577;28;19912;-55
2022/09/10 11:35:01;;;;;;;;;;;21.70;83.70;;;;;;5067294;28;20317;-55
2022/09/10 11:37:35;;;;;;;;;;;21.70;83.70;;;;;;5075508;28;19957;-55
2022/09/10 11:40:04;;;;;;;;;;;21.70;83.70;;;;;;5096605;28;19908;-55
2022/09/10 11:42:29;;;;;;;;;;;21.70;83.70;;;;;;5078579;28;19908;-53
2022/09/10 11:45:01;;;;;;;;;;;21.80;83.70;;;;;;5096254;28;19912;-54
2022/09/10 11:47:32;;;;;;;;;;;21.70;83.60;;;;;;5096389;28;19963;-55
2022/09/10 11:50:16;;;;;;;;;;;21.70;83.70;;;;;;5096818;28;19957;-55
2022/09/10 11:52:41;;;;;;;;;;;21.70;83.60;;;;;;5096235;28;19958;-56
2022/09/10 11:55:13;;;;;;;;;;;21.80;83.70;;;;;;5096377;28;19955;-56
2022/09/10 11:57:42;;;;;;;;;;;21.80;83.70;;;;;;5096063;28;19912;-56
2022/09/10 12:00:17;;;;;;;;;;;21.80;83.70;;;;;;5096266;28;19912;-57
2022/09/10 12:03:02;;;;;;;;;;;21.70;83.60;;;;;;5096202;28;19998;-53
2022/09/10 12:05:47;;;;;;;;;;;21.70;83.60;;;;;;5096451;28;20388;-57
2022/09/10 12:08:31;;;;;;;;;;;21.70;84.10;;;;;;5095941;28;19919;-56
2022/09/10 12:11:15;;;;;;;;;;;21.70;83.60;;;;;;5095119;28;19912;-55
2022/09/10 12:13:43;;;;;;;;;;;21.70;83.60;;;;;;5095736;28;20305;-53
2022/09/10 12:16:28;;;;;;;;;;;21.70;83.60;;;;;;5095704;28;20336;-55
2022/09/10 12:18:54;;;;;;;;;;;21.70;83.60;;;;;;5095798;28;19998;-56
2022/09/10 12:21:31;;;;;;;;;;;21.70;83.60;;;;;;5095655;28;19961;-55
2022/09/10 12:23:58;;;;;;;;;;;21.70;83.70;;;;;;5095799;28;19908;-53
2022/09/10 12:26:24;;;;;;;;;;;21.70;83.60;;;;;;5077773;28;19912;-52
2022/09/10 12:28:52;;;;;;;;;;;21.80;83.70;;;;;;5077361;28;19923;-55
2022/09/10 12:31:19;;;;;;;;;;;21.70;83.60;;;;;;5095672;28;19908;-56
2022/09/10 12:33:44;;;;;;;;;;;21.70;83.60;;;;;;5095298;28;19961;-55
2022/09/10 12:36:13;;;;;;;;;;;21.70;83.60;;;;;;5095908;28;19912;-56
2022/09/10 12:38:41;;;;;;;;;;;21.80;83.60;;;;;;5095445;28;19916;-56
2022/09/10 12:41:10;;;;;;;;;;;21.70;83.60;;;;;;5094933;28;19908;-56
2022/09/10 12:43:39;;;;;;;;;;;21.80;83.60;;;;;;5095308;28;19938;-54
2022/09/10 12:46:07;;;;;;;;;;;21.70;83.60;;;;;;5095305;28;19919;-57
2022/09/10 12:48:34;;;;;;;;;;;21.80;83.60;;;;;;5094960;28;19912;-56
2022/09/10 12:51:05;;;;;;;;;;;21.80;83.60;;;;;;5095025;28;19912;-56
2022/09/10 12:53:46;;;;;;;;;;;21.70;83.60;;;;;;5095091;28;19915;-55
2022/09/10 12:56:30;;;;;;;;;;;21.70;83.60;;;;;;5095612;28;19915;-56
2022/09/10 12:59:05;;;;;;;;;;;21.70;83.50;;;;;;5095179;28;19917;-56
2022/09/10 13:01:37;;;;;;;;;;;21.80;83.60;;;;;;5094822;28;19914;-57
2022/09/10 13:04:03;;;;;;;;;;;21.70;83.50;;;;;;5076692;28;19920;-58
2022/09/10 13:06:33;;;;;;;;;;;21.80;83.50;;;;;;5094762;28;20030;-56
2022/09/10 13:08:58;;;;;;;;;;;21.70;83.40;;;;;;5094418;28;20006;-56
2022/09/10 13:11:25;;;;;;;;;;;21.70;83.40;;;;;;5095035;28;19962;-55
2022/09/10 13:13:55;;;;;;;;;;;21.70;83.40;;;;;;5095038;28;19915;-58
2022/09/10 13:16:27;;;;;;;;;;;21.80;83.50;;;;;;5094891;28;19997;-55
2022/09/10 13:19:13;;;;;;;;;;;21.70;83.40;;;;;;5094243;28;19908;-52
2022/09/10 13:21:41;;;;;;;;;;;21.80;83.40;;;;;;5093171;28;19908;-57
2022/09/10 13:24:30;;;;;;;;;;;21.70;83.40;;;;;;5094464;28;20004;-55
2022/09/10 13:27:03;;;;;;;;;;;21.70;83.40;;;;;;5084651;28;20286;-55
2022/09/10 13:29:37;;;;;;;;;;;21.70;83.40;;;;;;5094800;28;20006;-56
2022/09/10 13:32:09;;;;;;;;;;;21.80;83.40;;;;;;5094320;28;19908;-51
2022/09/10 13:34:50;;;;;;;;;;;21.80;83.40;;;;;;5094541;28;19915;-56
2022/09/10 13:37:41;;;;;;;;;;;21.70;83.30;;;;;;5094156;28;20278;-57
2022/09/10 13:40:20;;;;;;;;;;;21.80;83.40;;;;;;5094186;28;20350;-57
2022/09/10 13:42:54;;;;;;;;;;;21.70;83.30;;;;;;5094189;28;19908;-57
2022/09/10 13:45:37;;;;;;;;;;;21.80;83.30;;;;;;5094495;28;19919;-57
2022/09/10 13:48:18;;;;;;;;;;;21.70;83.30;;;;;;5094405;28;19912;-58
2022/09/10 13:50:58;;;;;;;;;;;21.70;83.30;;;;;;5094187;28;19914;-56
2022/09/10 13:53:25;;;;;;;;;;;21.80;83.40;;;;;;5076014;28;19908;-56
2022/09/10 13:56:02;;;;;;;;;;;21.70;83.30;;;;;;5094669;28;19915;-56
2022/09/10 13:58:30;;;;;;;;;;;21.70;83.20;;;;;;5094056;28;19966;-57
2022/09/10 14:00:59;;;;;;;;;;;21.70;83.20;;;;;;5094024;28;19961;-57
2022/09/10 14:03:32;;;;;;;;;;;21.70;83.20;;;;;;5093836;28;19959;-57
2022/09/10 14:05:57;;;;;;;;;;;21.70;83.20;;;;;;5075850;28;19966;-57
2022/09/10 14:08:29;;;;;;;;;;;21.70;83.20;;;;;;5093944;28;19912;-56
2022/09/10 14:10:54;;;;;;;;;;;21.70;83.20;;;;;;5093790;28;19908;-54
2022/09/10 14:13:46;;;;;;;;;;;21.70;83.20;;;;;;5093826;28;20377;-56
2022/09/10 14:16:16;;;;;;;;;;;21.80;83.20;;;;;;5093697;28;19915;-57
2022/09/10 14:18:54;;;;;;;;;;;21.70;83.20;;;;;;5093923;28;19916;-55
2022/09/10 14:21:25;;;;;;;;;;;21.70;83.20;;;;;;5075618;28;19990;-56
2022/09/10 14:23:51;;;;;;;;;;;21.70;83.10;;;;;;5109855;28;19908;-56
2022/09/10 14:26:23;;;;;;;;;;;21.70;83.10;;;;;;5093679;28;20031;-55
2022/09/10 14:28:58;;;;;;;;;;;21.70;83.00;;;;;;5093834;28;19919;-57